createdAt,value
2018-04-28T00:00:04.469Z,98.80
2018-04-28T00:02:31.946Z,98.00
2018-04-28T00:04:59.421Z,97.40
2018-04-28T00:07:26.841Z,97.20
2018-04-28T00:09:54.257Z,96.90
2018-04-28T00:12:21.728Z,96.70
2018-04-28T00:14:49.134Z,96.90
2018-04-28T00:17:18.000Z,97.40
2018-04-28T00:19:47.180Z,98.00
2018-04-28T00:22:22.916Z,99.90
2018-04-28T00:24:51.250Z,99.90
2018-04-28T00:27:29.330Z,99.90
2018-04-28T00:30:00.465Z,99.90
2018-04-28T00:32:27.884Z,98.50
2018-04-28T00:34:58.046Z,98.00
2018-04-28T00:37:26.339Z,97.90
2018-04-28T00:42:57.517Z,98.00
2018-04-28T00:45:34.659Z,98.10
2018-04-28T00:50:58.780Z,98.20
2018-04-28T00:53:26.198Z,98.20
2018-04-28T00:55:54.384Z,98.10
2018-04-28T00:58:30.485Z,98.10
2018-04-28T01:01:07.469Z,98.10
2018-04-28T01:03:44.470Z,98.20
2018-04-28T01:06:11.873Z,98.10
2018-04-28T01:08:40.229Z,98.30
2018-04-28T01:11:13.122Z,98.30
2018-04-28T01:13:41.345Z,98.40
2018-04-28T01:16:08.778Z,98.40
2018-04-28T01:18:47.913Z,98.30
2018-04-28T01:21:17.787Z,98.10
2018-04-28T01:23:46.668Z,98.00
2018-04-28T01:26:17.852Z,97.90
2018-04-28T01:28:47.062Z,97.70
2018-04-28T01:31:29.357Z,97.80
2018-04-28T01:34:03.678Z,97.50
2018-04-28T01:36:40.725Z,97.80
2018-04-28T01:39:08.145Z,97.70
2018-04-28T01:41:41.138Z,97.90
2018-04-28T01:47:06.354Z,98.10
2018-04-28T01:49:54.555Z,98.20
2018-04-28T01:52:21.960Z,98.20
2018-04-28T01:54:52.309Z,98.20
2018-04-28T01:57:34.478Z,98.40
2018-04-28T02:00:15.668Z,98.40
2018-04-28T02:02:46.689Z,98.50
2018-04-28T02:05:16.653Z,98.60
2018-04-28T02:07:44.070Z,98.60
2018-04-28T02:10:11.489Z,98.70
2018-04-28T02:12:45.509Z,98.90
2018-04-28T02:15:29.674Z,98.50
2018-04-28T02:17:57.858Z,98.90
2018-04-28T02:20:26.576Z,98.80
2018-04-28T02:22:54.945Z,99.00
2018-04-28T02:28:30.474Z,99.10
2018-04-28T02:31:05.585Z,99.10
2018-04-28T02:33:35.033Z,99.30
2018-04-28T02:36:09.338Z,99.30
2018-04-28T02:38:43.557Z,99.40
2018-04-28T02:41:13.552Z,99.70
2018-04-28T02:43:48.791Z,99.70
2018-04-28T02:46:26.105Z,99.90
2018-04-28T02:48:58.233Z,99.80
2018-04-28T02:54:23.793Z,99.90
2018-04-28T02:56:51.942Z,99.90
2018-04-28T02:59:20.257Z,99.90
2018-04-28T03:04:55.570Z,99.90
2018-04-28T03:10:43.042Z,99.90
2018-04-28T03:16:10.445Z,99.90
2018-04-28T03:18:39.817Z,99.90
2018-04-28T03:21:08.047Z,99.90
2018-04-28T03:23:37.421Z,99.90
2018-04-28T03:26:06.777Z,99.90
2018-04-28T03:28:36.007Z,99.90
2018-04-28T03:31:07.237Z,99.90
2018-04-28T03:36:37.010Z,99.90
2018-04-28T03:39:05.293Z,99.90
2018-04-28T03:41:32.770Z,99.90
2018-04-28T03:44:00.950Z,99.90
2018-04-28T03:46:28.428Z,99.90
2018-04-28T03:49:07.569Z,99.90
2018-04-28T03:51:35.653Z,99.90
2018-04-28T03:54:04.864Z,99.90
2018-04-28T03:56:34.228Z,99.90
2018-04-28T03:59:13.524Z,99.90
2018-04-28T04:01:52.921Z,99.90
2018-04-28T04:04:23.319Z,99.90
2018-04-28T04:06:53.486Z,99.90
2018-04-28T04:09:23.693Z,99.90
2018-04-28T04:11:52.788Z,99.90
2018-04-28T04:14:22.726Z,99.90
2018-04-28T04:16:50.925Z,99.90
2018-04-28T04:19:29.029Z,99.90
2018-04-28T04:22:08.896Z,99.90
2018-04-28T04:24:44.037Z,99.90
2018-04-28T04:27:26.357Z,99.90
2018-04-28T04:30:11.237Z,99.90
2018-04-28T04:32:39.629Z,99.90
2018-04-28T04:35:10.725Z,99.90
2018-04-28T04:37:41.570Z,99.90
2018-04-28T04:40:16.938Z,99.90
2018-04-28T04:42:55.331Z,99.90
2018-04-28T04:45:30.481Z,99.90
2018-04-28T04:47:58.788Z,99.90
2018-04-28T04:50:34.925Z,99.90
2018-04-28T04:56:16.369Z,99.90
2018-04-28T04:58:48.813Z,99.90
2018-04-28T05:01:29.525Z,99.90
2018-04-28T05:04:03.467Z,99.90
2018-04-28T05:09:35.369Z,99.90
2018-04-28T05:15:23.885Z,99.90
2018-04-28T05:17:53.754Z,99.90
2018-04-28T05:23:36.245Z,99.90
2018-04-28T05:26:33.813Z,99.90
2018-04-28T05:29:03.664Z,99.90
2018-04-28T05:31:36.926Z,99.90
2018-04-28T05:34:23.189Z,99.90
2018-04-28T05:37:09.255Z,99.90
2018-04-28T05:39:48.424Z,99.90
2018-04-28T05:45:32.409Z,99.90
2018-04-28T05:48:07.274Z,99.90
2018-04-28T05:50:40.278Z,99.90
2018-04-28T05:56:12.073Z,99.90
2018-04-28T05:59:02.189Z,99.90
2018-04-28T06:01:36.373Z,99.90
2018-04-28T06:04:05.456Z,99.90
2018-04-28T06:09:42.304Z,99.90
2018-04-28T06:12:33.565Z,99.90
2018-04-28T06:15:14.453Z,99.80
2018-04-28T06:17:53.549Z,99.90
2018-04-28T06:20:32.865Z,98.90
2018-04-28T06:23:00.299Z,97.80
2018-04-28T06:25:28.478Z,95.30
2018-04-28T06:27:56.706Z,94.80
2018-04-28T06:30:24.109Z,94.60
2018-04-28T06:32:51.536Z,92.00
2018-04-28T06:35:18.949Z,89.00
2018-04-28T06:37:46.371Z,83.20
2018-04-28T06:40:13.798Z,78.90
2018-04-28T06:42:41.210Z,75.00
2018-04-28T06:45:08.628Z,71.20
2018-04-28T06:47:36.042Z,64.90
2018-04-28T06:50:03.514Z,64.90
2018-04-28T06:52:30.921Z,64.00
2018-04-28T06:54:58.345Z,61.20
2018-04-28T06:57:25.765Z,59.70
2018-04-28T06:59:53.184Z,60.00
2018-04-28T07:02:20.595Z,58.50
2018-04-28T07:04:48.041Z,58.10
2018-04-28T07:07:15.453Z,55.20
2018-04-28T07:09:42.873Z,55.40
2018-04-28T07:12:10.299Z,53.70
2018-04-28T07:14:37.713Z,49.80
2018-04-28T07:17:05.179Z,50.90
2018-04-28T07:19:32.597Z,52.00
2018-04-28T07:22:00.009Z,51.20
2018-04-28T07:24:27.433Z,52.70
2018-04-28T07:26:54.843Z,52.40
2018-04-28T07:29:23.021Z,54.50
2018-04-28T07:31:51.207Z,53.40
2018-04-28T07:34:19.401Z,53.70
2018-04-28T07:36:47.584Z,56.00
2018-04-28T07:39:15.766Z,55.60
2018-04-28T07:41:43.953Z,57.60
2018-04-28T07:44:12.134Z,58.70
2018-04-28T07:46:40.342Z,58.90
2018-04-28T07:49:07.765Z,58.90
2018-04-28T07:51:35.245Z,61.40
2018-04-28T07:54:02.665Z,62.30
2018-04-28T07:56:30.826Z,61.00
2018-04-28T07:58:59.021Z,61.70
2018-04-28T08:01:27.216Z,65.20
2018-04-28T08:03:54.629Z,65.10
2018-04-28T08:06:22.054Z,66.30
2018-04-28T08:08:49.464Z,65.80
2018-04-28T08:11:16.889Z,65.90
2018-04-28T08:13:44.301Z,65.60
2018-04-28T08:16:11.725Z,66.70
2018-04-28T08:18:39.129Z,66.20
2018-04-28T08:21:06.573Z,66.60
2018-04-28T08:23:34.034Z,68.00
2018-04-28T08:26:01.458Z,68.70
2018-04-28T08:28:28.867Z,63.80
2018-04-28T08:30:57.071Z,62.90
2018-04-28T08:33:25.405Z,62.70
2018-04-28T08:35:52.825Z,62.10
2018-04-28T08:38:20.258Z,63.20
2018-04-28T08:40:47.662Z,64.50
2018-04-28T08:43:15.129Z,61.70
2018-04-28T08:45:42.550Z,62.80
2018-04-28T08:48:10.170Z,60.70
2018-04-28T08:50:37.412Z,60.50
2018-04-28T08:53:05.605Z,58.90
2018-04-28T08:55:33.925Z,58.50
2018-04-28T08:58:02.096Z,62.50
2018-04-28T09:00:30.193Z,62.40
2018-04-28T09:02:57.604Z,61.70
2018-04-28T09:05:25.135Z,61.30
2018-04-28T09:07:52.541Z,61.60
2018-04-28T09:10:20.225Z,59.70
2018-04-28T09:12:47.654Z,59.20
2018-04-28T09:15:15.091Z,62.20
2018-04-28T09:17:43.269Z,61.90
2018-04-28T09:20:11.591Z,62.10
2018-04-28T09:22:39.010Z,61.40
2018-04-28T09:25:06.432Z,60.60
2018-04-28T09:27:33.840Z,61.90
2018-04-28T09:30:02.086Z,60.60
2018-04-28T09:32:29.493Z,60.20
2018-04-28T09:34:56.910Z,63.40
2018-04-28T09:37:25.117Z,60.00
2018-04-28T09:39:52.542Z,60.00
2018-04-28T09:42:19.960Z,62.80
2018-04-28T09:44:47.374Z,61.10
2018-04-28T09:47:14.797Z,62.30
2018-04-28T09:49:42.204Z,62.70
2018-04-28T09:52:09.621Z,59.40
2018-04-28T09:54:37.041Z,60.30
2018-04-28T09:57:04.457Z,60.80
2018-04-28T09:59:31.929Z,63.00
2018-04-28T10:01:59.354Z,60.40
2018-04-28T10:04:26.780Z,63.50
2018-04-28T10:06:54.200Z,62.10
2018-04-28T10:09:21.616Z,63.30
2018-04-28T10:11:49.040Z,62.00
2018-04-28T10:14:16.465Z,64.90
2018-04-28T10:16:43.882Z,59.60
2018-04-28T10:19:11.394Z,60.30
2018-04-28T10:21:38.801Z,59.20
2018-04-28T10:24:06.217Z,62.90
2018-04-28T10:26:33.701Z,63.00
2018-04-28T10:29:01.147Z,58.30
2018-04-28T10:31:28.541Z,60.00
2018-04-28T10:33:56.003Z,58.10
2018-04-28T10:36:23.418Z,62.10
2018-04-28T10:38:50.837Z,60.80
2018-04-28T10:41:18.252Z,60.60
2018-04-28T10:43:45.678Z,60.90
2018-04-28T10:46:13.093Z,61.90
2018-04-28T10:48:40.514Z,58.00
2018-04-28T10:51:07.932Z,59.20
2018-04-28T10:53:35.491Z,58.20
2018-04-28T10:56:02.921Z,56.10
2018-04-28T10:58:30.389Z,57.90
2018-04-28T11:00:57.806Z,59.40
2018-04-28T11:03:25.234Z,58.10
2018-04-28T11:05:52.657Z,57.70
2018-04-28T11:08:20.172Z,53.00
2018-04-28T11:10:47.592Z,55.20
2018-04-28T11:13:15.115Z,58.50
2018-04-28T11:15:42.497Z,55.40
2018-04-28T11:18:09.949Z,56.00
2018-04-28T11:20:37.377Z,55.30
2018-04-28T11:23:04.898Z,54.60
2018-04-28T11:25:32.460Z,53.90
2018-04-28T11:27:59.737Z,54.10
2018-04-28T11:30:27.195Z,53.30
2018-04-28T11:32:54.724Z,53.90
2018-04-28T11:35:22.094Z,55.40
2018-04-28T11:37:50.268Z,56.00
2018-04-28T11:40:17.696Z,56.10
2018-04-28T11:42:45.109Z,54.00
2018-04-28T11:45:12.539Z,56.20
2018-04-28T11:47:39.953Z,57.60
2018-04-28T11:50:07.384Z,58.30
2018-04-28T11:52:34.799Z,56.40
2018-04-28T11:55:02.314Z,56.70
2018-04-28T11:57:29.726Z,59.00
2018-04-28T11:59:57.150Z,56.70
2018-04-28T12:02:24.569Z,58.40
2018-04-28T12:04:51.990Z,57.50
2018-04-28T12:07:19.412Z,55.20
2018-04-28T12:09:46.933Z,57.60
2018-04-28T12:12:14.348Z,57.40
2018-04-28T12:14:41.765Z,54.10
2018-04-28T12:17:09.193Z,54.90
2018-04-28T12:19:36.715Z,56.80
2018-04-28T12:22:04.125Z,54.50
2018-04-28T12:24:31.553Z,53.80
2018-04-28T12:26:58.960Z,56.20
2018-04-28T12:29:26.377Z,57.50
2018-04-28T12:31:53.789Z,57.60
2018-04-28T12:34:21.214Z,59.00
2018-04-28T12:36:48.629Z,56.20
2018-04-28T12:39:16.041Z,56.70
2018-04-28T12:41:44.248Z,59.60
2018-04-28T12:44:11.673Z,59.60
2018-04-28T12:46:39.849Z,57.30
2018-04-28T12:49:07.279Z,57.20
2018-04-28T12:51:34.689Z,56.80
2018-04-28T12:54:02.109Z,59.00
2018-04-28T12:56:29.526Z,59.20
2018-04-28T12:58:56.950Z,57.00
2018-04-28T13:01:24.373Z,59.30
2018-04-28T13:03:51.785Z,60.10
2018-04-28T13:06:19.211Z,59.50
2018-04-28T13:08:46.617Z,60.10
2018-04-28T13:11:14.049Z,60.40
2018-04-28T13:13:41.566Z,57.80
2018-04-28T13:16:08.986Z,58.80
2018-04-28T13:18:36.405Z,57.20
2018-04-28T13:21:03.825Z,57.90
2018-04-28T13:23:31.297Z,58.10
2018-04-28T13:25:58.736Z,58.00
2018-04-28T13:28:26.190Z,62.70
2018-04-28T13:30:53.612Z,59.50
2018-04-28T13:33:21.030Z,57.70
2018-04-28T13:35:48.452Z,57.80
2018-04-28T13:38:15.860Z,59.10
2018-04-28T13:40:43.278Z,54.50
2018-04-28T13:43:10.798Z,56.80
2018-04-28T13:45:38.213Z,56.40
2018-04-28T13:48:05.637Z,55.30
2018-04-28T13:50:33.059Z,58.20
2018-04-28T13:53:00.476Z,57.10
2018-04-28T13:55:27.950Z,57.10
2018-04-28T13:57:55.373Z,62.30
2018-04-28T14:00:22.822Z,59.00
2018-04-28T14:02:50.232Z,57.50
2018-04-28T14:05:18.416Z,60.10
2018-04-28T14:07:46.693Z,58.90
2018-04-28T14:10:14.108Z,58.80
2018-04-28T14:12:41.557Z,58.70
2018-04-28T14:15:09.725Z,58.60
2018-04-28T14:17:37.960Z,57.80
2018-04-28T14:20:05.356Z,57.80
2018-04-28T14:22:32.890Z,57.50
2018-04-28T14:25:01.063Z,60.70
2018-04-28T14:27:28.511Z,60.70
2018-04-28T14:29:56.696Z,59.70
2018-04-28T14:32:24.877Z,61.40
2018-04-28T14:34:52.397Z,61.30
2018-04-28T14:37:19.814Z,61.10
2018-04-28T14:39:47.241Z,62.50
2018-04-28T14:42:14.648Z,59.50
2018-04-28T14:44:42.161Z,61.10
2018-04-28T14:47:09.577Z,60.70
2018-04-28T14:49:37.029Z,61.00
2018-04-28T14:52:04.446Z,60.00
2018-04-28T14:54:32.621Z,60.40
2018-04-28T14:57:00.044Z,60.20
2018-04-28T14:59:27.456Z,60.90
2018-04-28T15:01:54.975Z,62.90
2018-04-28T15:04:23.132Z,61.70
2018-04-28T15:06:51.309Z,62.40
2018-04-28T15:09:19.489Z,65.00
2018-04-28T15:11:46.905Z,65.00
2018-04-28T15:14:14.376Z,63.80
2018-04-28T15:16:41.801Z,63.40
2018-04-28T15:19:09.205Z,61.20
2018-04-28T15:21:36.613Z,60.90
2018-04-28T15:24:04.032Z,60.30
2018-04-28T15:26:32.214Z,61.50
2018-04-28T15:29:00.391Z,62.10
2018-04-28T15:31:28.569Z,62.80
2018-04-28T15:33:56.752Z,63.90
2018-04-28T15:36:24.933Z,62.50
2018-04-28T15:38:53.110Z,62.80
2018-04-28T15:41:20.582Z,62.80
2018-04-28T15:43:47.949Z,61.50
2018-04-28T15:46:15.470Z,63.00
2018-04-28T15:48:42.944Z,60.00
2018-04-28T15:51:10.415Z,59.90
2018-04-28T15:53:37.821Z,61.70
2018-04-28T15:56:05.249Z,62.00
2018-04-28T15:58:32.717Z,59.60
2018-04-28T16:01:00.138Z,58.80
2018-04-28T16:03:27.553Z,59.20
2018-04-28T16:05:54.973Z,58.80
2018-04-28T16:08:23.154Z,56.40
2018-04-28T16:10:50.569Z,56.70
2018-04-28T16:13:18.777Z,58.80
2018-04-28T16:15:46.193Z,58.70
2018-04-28T16:18:13.612Z,59.00
2018-04-28T16:20:41.025Z,57.50
2018-04-28T16:23:08.442Z,57.40
2018-04-28T16:25:35.853Z,56.40
2018-04-28T16:28:03.266Z,57.80
2018-04-28T16:30:31.487Z,58.90
2018-04-28T16:32:58.894Z,58.90
2018-04-28T16:35:26.313Z,59.10
2018-04-28T16:37:53.720Z,59.40
2018-04-28T16:40:21.145Z,60.30
2018-04-28T16:42:48.560Z,61.30
2018-04-28T16:45:15.978Z,62.00
2018-04-28T16:47:43.393Z,61.80
2018-04-28T16:50:10.809Z,63.40
2018-04-28T16:52:39.055Z,62.00
2018-04-28T16:55:06.463Z,62.00
2018-04-28T16:57:34.665Z,61.40
2018-04-28T17:00:02.081Z,61.30
2018-04-28T17:02:29.510Z,61.20
2018-04-28T17:04:56.917Z,62.70
2018-04-28T17:07:24.453Z,62.20
2018-04-28T17:09:51.934Z,61.70
2018-04-28T17:12:19.348Z,62.10
2018-04-28T17:14:46.760Z,62.20
2018-04-28T17:17:14.263Z,62.10
2018-04-28T17:19:43.101Z,63.20
2018-04-28T17:22:11.294Z,62.60
2018-04-28T17:24:39.506Z,63.70
2018-04-28T17:27:06.956Z,63.70
2018-04-28T17:29:35.143Z,64.80
2018-04-28T17:32:03.321Z,65.50
2018-04-28T17:34:31.514Z,67.60
2018-04-28T17:36:59.703Z,67.30
2018-04-28T17:39:27.922Z,67.10
2018-04-28T17:41:55.378Z,67.10
2018-04-28T17:44:22.801Z,68.00
2018-04-28T17:46:50.212Z,68.30
2018-04-28T17:49:18.450Z,69.70
2018-04-28T17:51:45.854Z,68.30
2018-04-28T17:54:14.041Z,67.20
2018-04-28T17:56:42.221Z,67.90
2018-04-28T17:59:10.437Z,70.40
2018-04-28T18:01:37.906Z,70.40
2018-04-28T18:04:05.317Z,72.20
2018-04-28T18:06:32.736Z,71.10
2018-04-28T18:09:00.209Z,69.60
2018-04-28T18:11:27.625Z,69.80
2018-04-28T18:13:55.040Z,72.00
2018-04-28T18:16:22.453Z,74.30
2018-04-28T18:18:49.868Z,77.00
2018-04-28T18:21:18.050Z,81.20
2018-04-28T18:23:46.254Z,82.60
2018-04-28T18:26:13.784Z,82.60
2018-04-28T18:28:41.084Z,84.30
2018-04-28T18:31:09.265Z,90.20
2018-04-28T18:33:37.456Z,91.10
2018-04-28T18:36:05.633Z,91.80
2018-04-28T18:38:33.045Z,91.80
2018-04-28T18:41:00.516Z,92.20
2018-04-28T18:43:27.940Z,92.50
2018-04-28T18:45:56.127Z,93.00
2018-04-28T18:48:24.313Z,93.50
2018-04-28T18:50:52.492Z,92.90
2018-04-28T18:53:19.926Z,92.90
2018-04-28T18:55:47.340Z,94.10
2018-04-28T18:58:14.753Z,94.60
2018-04-28T19:00:42.173Z,95.90
2018-04-28T19:03:09.594Z,96.40
2018-04-28T19:05:37.010Z,97.40
2018-04-28T19:08:04.516Z,98.00
2018-04-28T19:10:31.934Z,98.30
2018-04-28T19:12:59.353Z,97.90
2018-04-28T19:15:26.764Z,98.30
2018-04-28T19:17:54.187Z,97.70
2018-04-28T19:20:21.597Z,97.20
2018-04-28T19:22:49.013Z,96.50
2018-04-28T19:25:17.193Z,96.60
2018-04-28T19:27:45.377Z,96.10
2018-04-28T19:30:13.553Z,96.20
2018-04-28T19:32:40.983Z,96.20
2018-04-28T19:35:08.426Z,96.10
2018-04-28T19:37:35.837Z,96.60
2018-04-28T19:40:03.256Z,96.90
2018-04-28T19:42:30.662Z,97.20
2018-04-28T19:44:58.106Z,97.20
2018-04-28T19:47:25.517Z,97.20
2018-04-28T19:49:52.942Z,97.40
2018-04-28T19:52:20.349Z,97.60
2018-04-28T19:54:47.777Z,97.80
2018-04-28T19:57:15.185Z,97.50
2018-04-28T19:59:42.734Z,97.40
2018-04-28T20:02:10.145Z,97.60
2018-04-28T20:04:37.565Z,97.60
2018-04-28T20:07:05.027Z,97.30
2018-04-28T20:09:32.497Z,97.60
2018-04-28T20:11:59.909Z,97.80
2018-04-28T20:14:27.338Z,97.80
2018-04-28T20:16:54.748Z,97.90
2018-04-28T20:19:22.282Z,97.90
2018-04-28T20:21:49.693Z,97.90
2018-04-28T20:24:29.199Z,98.40
2018-04-28T20:26:56.673Z,99.00
2018-04-28T20:29:24.093Z,99.90
2018-04-28T20:31:51.583Z,99.90
2018-04-28T20:34:19.775Z,99.90
2018-04-28T20:36:47.952Z,99.90
2018-04-28T20:39:16.140Z,99.90
2018-04-28T20:41:44.330Z,99.90
2018-04-28T20:44:12.514Z,99.90
2018-04-28T20:46:40.692Z,99.90
2018-04-28T20:49:08.113Z,99.90
2018-04-28T20:51:35.535Z,99.90
2018-04-28T20:54:02.948Z,99.90
2018-04-28T20:56:30.365Z,99.90
2018-04-28T20:58:57.775Z,99.90
2018-04-28T21:01:25.189Z,99.90
2018-04-28T21:03:52.601Z,99.90
2018-04-28T21:06:20.014Z,99.90
2018-04-28T21:08:47.430Z,99.90
2018-04-28T21:11:15.636Z,99.90
2018-04-28T21:13:43.061Z,99.90
2018-04-28T21:16:10.483Z,99.90
2018-04-28T21:18:37.892Z,99.90
2018-04-28T21:21:05.313Z,99.90
2018-04-28T21:23:32.737Z,99.90
2018-04-28T21:26:00.148Z,99.90
2018-04-28T21:28:27.563Z,99.90
2018-04-28T21:30:54.970Z,99.90
2018-04-28T21:33:23.148Z,99.90
2018-04-28T21:35:51.341Z,99.90
2018-04-28T21:38:19.513Z,99.90
2018-04-28T21:40:46.947Z,99.90
2018-04-28T21:43:14.354Z,99.90
2018-04-28T21:45:41.773Z,99.90
2018-04-28T21:48:09.186Z,99.90
2018-04-28T21:50:36.698Z,99.90
2018-04-28T21:53:04.121Z,99.90
2018-04-28T21:55:31.541Z,99.90
2018-04-28T21:57:58.953Z,99.90
2018-04-28T22:00:26.364Z,99.90
2018-04-28T22:02:53.781Z,99.90
2018-04-28T22:05:21.321Z,99.90
2018-04-28T22:07:48.733Z,99.90
2018-04-28T22:10:16.249Z,99.90
2018-04-28T22:12:43.657Z,99.90
2018-04-28T22:15:11.080Z,99.90
2018-04-28T22:17:39.258Z,99.90
2018-04-28T22:20:07.441Z,99.90
2018-04-28T22:22:35.616Z,99.90
2018-04-28T22:25:03.032Z,99.90
2018-04-28T22:27:30.449Z,99.90
2018-04-28T22:29:57.865Z,99.90
2018-04-28T22:32:25.281Z,99.90
2018-04-28T22:34:52.697Z,99.90
2018-04-28T22:37:20.109Z,99.90
2018-04-28T22:39:47.529Z,99.90
2018-04-28T22:42:14.937Z,99.90
2018-04-28T22:44:42.360Z,99.90
2018-04-28T22:47:09.776Z,99.90
2018-04-28T22:49:37.196Z,99.90
2018-04-28T22:52:05.376Z,99.90
2018-04-28T22:54:33.577Z,99.90
2018-04-28T22:57:01.005Z,99.90
2018-04-28T22:59:28.437Z,99.90
2018-04-28T23:04:29.817Z,99.90
2018-04-28T23:06:57.231Z,99.90
2018-04-28T23:09:24.666Z,99.90
2018-04-28T23:11:52.077Z,99.90
2018-04-28T23:14:19.497Z,99.90
2018-04-28T23:16:46.906Z,99.90
2018-04-28T23:19:14.331Z,99.90
2018-04-28T23:21:41.733Z,99.90
2018-04-28T23:24:09.149Z,99.90
2018-04-28T23:26:37.339Z,99.90
2018-04-28T23:29:05.548Z,99.90
2018-04-28T23:31:32.965Z,99.90
2018-04-28T23:34:00.388Z,99.90
2018-04-28T23:36:27.861Z,99.90
2018-04-28T23:38:55.273Z,99.90
2018-04-28T23:41:22.686Z,99.90
2018-04-28T23:43:50.105Z,99.90
2018-04-28T23:46:17.617Z,99.90
2018-04-28T23:48:45.034Z,99.90
2018-04-28T23:51:12.450Z,99.90
2018-04-28T23:53:40.640Z,99.90
2018-04-28T23:56:08.824Z,99.90
2018-04-28T23:58:37.005Z,99.90
